Weather History for Camden, SC

Change the Weather History Date:

Saturday, February 16, 2013

  Actual Average (KSSC) Record (KSSC)
Temperature  
Mean Temperature 37 °F -  
Max Temperature 42 °F 58 °F 75 °F (2001)
Min Temperature 32 °F 36 °F 25 °F (2007)
Degree Days  
Heating Degree Days 28    
Moisture  
Dew Point 34 °F    
Average Humidity 89    
Maximum Humidity 100    
Minimum Humidity 76    
Precipitation  
Precipitation 9.42 in - - ()
Sea Level Pressure  
Sea Level Pressure 29.94 in    
Wind  
Wind Speed 5 mph (NW)    
Max Wind Speed 22 mph    
Max Gust Speed 29 mph    
Visibility 8 miles    
Events Rain , Snow    
Averages and records for this station are not official NWS values.
T = Trace of Precipitation, MM = Missing Value Source: NWS Daily Summary

Daily Weather History Graph

Daily Weather History Graph

Search for Another Location

Airport:

Trip Planner

Search our weather history database for the weather conditions in past years. The results will help you decide how hot, cold, wet, or windy it might be!

Date:

Astronomy

Feb. 16, 2013 Rise Set
Actual Time 7:05 AM EST 6:07 PM EST
Civil Twilight 6:40 AM EST 6:32 PM EST
Nautical Twilight 6:11 AM EST 7:02 PM EST
Astronomical Twilight 5:41 AM EST 7:31 PM EST
Moon 10:37 AM EST (2/16) No Moon Set
Length of Visible Light 11h 52m
Length of Day
11h 01m
Waxing Crescent, 39% of the Moon is Illuminated
Feb 16
Waxing Crescent
Feb 17
First Quarter
Feb 25
Full
Mar 4
Last Quarter
Mar 11
New

Hourly Weather History & Observations

Time (EST) Temp. Windchill Dew Point Humidity Pressure Visibility Wind Dir Wind Speed Gust Speed Precip Events Conditions
12:15 AM 39.2 °F - 33.8 °F 81% 29.95 in 10.0 mi Calm Calm - 0.00 in   Clear
12:35 AM 37.4 °F 34.9 °F 33.8 °F 87% 29.96 in 10.0 mi West 3.5 mph - 0.00 in   Clear
12:55 AM 39.2 °F - 35.6 °F 87% 29.96 in 10.0 mi Calm Calm - 0.00 in   Clear
1:15 AM 39.2 °F - 35.6 °F 87% 29.96 in 10.0 mi Calm Calm - 0.00 in   Clear
1:35 AM 37.4 °F - 33.8 °F 87% 29.96 in 10.0 mi Calm Calm - 0.00 in   Clear
1:55 AM 35.6 °F - 33.8 °F 93% 29.96 in 10.0 mi Calm Calm - 0.00 in   Clear
2:15 AM 37.4 °F 33.8 °F 33.8 °F 87% 29.97 in 10.0 mi NW 4.6 mph - 0.00 in   Clear
2:35 AM 37.4 °F 34.9 °F 33.8 °F 87% 29.96 in 10.0 mi North 3.5 mph - 0.00 in   Clear
2:55 AM 37.4 °F 32.8 °F 33.8 °F 87% 29.96 in 10.0 mi North 5.8 mph - 0.00 in   Clear
3:15 AM 39.2 °F 35.0 °F 33.8 °F 81% 29.95 in 10.0 mi NE 5.8 mph - 0.00 in   Clear
3:35 AM 41.0 °F 35.8 °F 35.6 °F 81% 29.94 in 10.0 mi NNE 8.1 mph - 0.00 in   Clear
3:55 AM 42.8 °F 38.6 °F 35.6 °F 76% 29.94 in 10.0 mi NNE 6.9 mph - 0.00 in   Clear
4:15 AM 41.0 °F 36.4 °F 35.6 °F 81% 29.93 in 10.0 mi NNE 6.9 mph - 0.00 in   Clear
4:35 AM 39.2 °F 35.9 °F 35.6 °F 87% 29.93 in 10.0 mi NE 4.6 mph - 0.00 in   Clear
4:55 AM 39.2 °F 35.9 °F 33.8 °F 81% 29.93 in 10.0 mi North 4.6 mph - 0.00 in   Clear
5:15 AM 39.2 °F 35.9 °F 33.8 °F 81% 29.93 in 10.0 mi NNW 4.6 mph - 0.00 in   Clear
5:35 AM 39.2 °F 35.0 °F 33.8 °F 81% 29.94 in 10.0 mi NNW 5.8 mph - 0.00 in   Partly Cloudy
5:55 AM 39.2 °F 35.9 °F 33.8 °F 81% 29.94 in 10.0 mi NNE 4.6 mph - 0.00 in   Partly Cloudy
6:15 AM 39.2 °F 35.0 °F 33.8 °F 81% 29.94 in 10.0 mi NNE 5.8 mph - 0.00 in   Partly Cloudy
6:35 AM 41.0 °F 37.1 °F 33.8 °F 76% 29.94 in 10.0 mi North 5.8 mph - 0.00 in   Partly Cloudy
6:55 AM 41.0 °F 37.1 °F 33.8 °F 76% 29.95 in 10.0 mi North 5.8 mph - 0.00 in   Mostly Cloudy
7:15 AM 41.0 °F 38.0 °F 33.8 °F 76% 29.95 in 10.0 mi North 4.6 mph - 0.00 in   Scattered Clouds
7:55 AM 42.8 °F 37.5 °F 35.6 °F 76% 29.95 in 10.0 mi North 9.2 mph - 0.00 in   Partly Cloudy
8:15 AM 42.8 °F 35.4 °F 35.6 °F 76% 29.94 in 10.0 mi NNE 15.0 mph - 0.00 in   Partly Cloudy
8:35 AM 41.0 °F 33.9 °F 35.6 °F 81% 29.94 in 10.0 mi North 12.7 mph 16.1 mph 0.00 in   Partly Cloudy
8:55 AM 39.2 °F 32.5 °F 35.6 °F 87% 29.94 in 9.0 mi North 10.4 mph - 0.00 in Rain Light Rain
9:15 AM 37.4 °F 30.3 °F 35.6 °F 93% 29.95 in 2.5 mi North 10.4 mph - 0.02 in Rain Rain
9:35 AM 37.4 °F 29.8 °F 35.6 °F 93% 29.95 in 2.0 mi NNW 11.5 mph - 0.13 in Rain Heavy Rain
9:55 AM 35.6 °F 27.5 °F 33.8 °F 93% 29.96 in 1.8 mi NNW 11.5 mph - 0.21 in   Overcast
10:15 AM 33.8 °F 28.6 °F 32.0 °F 93% 29.98 in 0.5 mi NW 5.8 mph - 0.27 in Snow Light Snow
10:35 AM 33.8 °F 29.6 °F 32.0 °F 93% 29.97 in 0.5 mi NW 4.6 mph - 0.46 in Snow Light Snow
1:15 PM 37.4 °F - 35.6 °F 93% 29.92 in 3.0 mi Calm Calm - 0.01 in Rain Light Rain
1:35 PM 37.4 °F 34.9 °F 35.6 °F 93% 29.91 in 8.0 mi WNW 3.5 mph - 0.01 in   Mostly Cloudy
1:55 PM 37.4 °F - 35.6 °F 93% 29.88 in 10.0 mi Calm Calm - 0.01 in   Scattered Clouds
2:15 PM 37.4 °F - 35.6 °F 93% 29.87 in 10.0 mi Calm Calm - 0.00 in   Scattered Clouds
2:35 PM 37.4 °F 34.9 °F 35.6 °F 93% 29.87 in 10.0 mi NNW 3.5 mph - 0.00 in   Mostly Cloudy
2:55 PM 39.2 °F 35.9 °F 35.6 °F 87% 29.88 in 10.0 mi WNW 4.6 mph - 0.00 in   Overcast
3:15 PM 39.2 °F 35.9 °F 35.6 °F 87% 29.87 in 10.0 mi WNW 4.6 mph - 0.00 in   Overcast
3:35 PM 39.2 °F 35.0 °F 35.6 °F 87% 29.86 in 10.0 mi WNW 5.8 mph - 0.00 in   Overcast
3:55 PM 39.2 °F 34.2 °F 35.6 °F 87% 29.86 in 10.0 mi West 6.9 mph - 0.00 in   Overcast
4:15 PM 39.2 °F 34.2 °F 35.6 °F 87% 29.86 in 10.0 mi WNW 6.9 mph - 0.00 in   Overcast
4:35 PM 39.2 °F 34.2 °F 35.6 °F 87% 29.86 in 10.0 mi WNW 6.9 mph - 0.00 in   Overcast
4:55 PM 39.2 °F 35.0 °F 35.6 °F 87% 29.87 in 10.0 mi WNW 5.8 mph - 0.00 in   Overcast
5:15 PM 39.2 °F 35.9 °F 35.6 °F 87% 29.86 in 4.0 mi WNW 4.6 mph - 0.00 in   Overcast
5:35 PM 37.4 °F 34.9 °F 35.6 °F 93% 29.86 in 10.0 mi NW 3.5 mph - 0.00 in   Scattered Clouds
5:55 PM 37.4 °F 34.9 °F 35.6 °F 93% 29.86 in 10.0 mi SSW 3.5 mph - 0.00 in   Mostly Cloudy
6:15 PM 37.4 °F 31.4 °F 35.6 °F 93% 29.87 in 7.0 mi WSW 8.1 mph - 0.00 in   Overcast
6:35 PM 35.6 °F 25.5 °F 33.8 °F 93% 29.86 in 2.0 mi West 17.3 mph 21.9 mph 0.06 in   Overcast
6:55 PM 33.8 °F 21.9 °F 32.0 °F 93% 29.90 in - NNW 21.9 mph 28.8 mph 3.44 in Snow Heavy Snow
7:15 PM 33.8 °F 24.8 °F 32.0 °F 93% 29.92 in - NW 12.7 mph - 3.28 in Snow Heavy Snow
7:35 PM 33.8 °F 25.3 °F 32.0 °F 93% 29.94 in - WNW 11.5 mph 18.4 mph 4.35 in Snow Light Snow
7:55 PM 32.0 °F 23.6 °F 32.0 °F 100% 29.95 in - WNW 10.4 mph - 4.62 in Snow Light Snow
8:15 PM 32.0 °F 23.6 °F 32.0 °F 100% 29.97 in - NW 10.4 mph 18.4 mph 0.19 in Snow Light Snow
8:35 PM 32.0 °F 23.6 °F 32.0 °F 100% 29.98 in 0.8 mi NW 10.4 mph - 0.45 in Snow Snow
8:55 PM 32.0 °F 23.6 °F 32.0 °F 100% 29.98 in 1.5 mi NNW 10.4 mph 18.4 mph 0.59 in Snow Light Snow
9:15 PM 32.0 °F 26.4 °F 32.0 °F 100% 29.98 in 10.0 mi North 5.8 mph - 0.01 in Snow Light Snow
9:35 PM 32.0 °F 26.4 °F 32.0 °F 100% 30.00 in 10.0 mi WNW 5.8 mph - 0.04 in Snow Light Snow
9:55 PM 32.0 °F 28.7 °F 32.0 °F 100% 30.01 in 10.0 mi WNW 3.5 mph - 0.06 in Snow Light Snow
10:15 PM 32.0 °F 27.5 °F 32.0 °F 100% 30.02 in 10.0 mi West 4.6 mph - 0.00 in Snow Light Snow
10:35 PM 32.0 °F 27.5 °F 30.2 °F 93% 30.02 in 10.0 mi West 4.6 mph - 0.01 in Snow Light Snow
10:55 PM 32.0 °F 27.5 °F 32.0 °F 100% 30.02 in 10.0 mi West 4.6 mph - 0.02 in Snow Light Snow
11:15 PM 32.0 °F 27.5 °F 30.2 °F 93% 30.02 in 10.0 mi West 4.6 mph - 0.00 in Snow Light Snow
11:35 PM 32.0 °F 26.4 °F 30.2 °F 93% 30.03 in 10.0 mi West 5.8 mph - 0.00 in Snow Light Snow
11:55 PM 32.0 °F 25.6 °F 30.2 °F 93% 30.03 in 10.0 mi West 6.9 mph - 0.01 in Snow Light Snow